sensor_id;sensor_type;location;lat;lon;timestamp;pressure;altitude;pressure_sealevel;temperature;humidity
56272;BME280;42177;48.914;18.160;2023-06-26T00:02:17;985.8;;;18.3;81.8
56272;BME280;42177;48.914;18.160;2023-06-26T00:07:17;985.8;;;18.2;82.7
56272;BME280;42177;48.914;18.160;2023-06-26T00:12:17;985.8;;;18.2;82.7
56272;BME280;42177;48.914;18.160;2023-06-26T00:17:17;985.8;;;18.3;82.1
56272;BME280;42177;48.914;18.160;2023-06-26T00:22:17;985.8;;;18.3;82.1
56272;BME280;42177;48.914;18.160;2023-06-26T00:27:17;985.7;;;17.9;84.3
56272;BME280;42177;48.914;18.160;2023-06-26T00:32:17;985.7;;;17.9;84.3
56272;BME280;42177;48.914;18.160;2023-06-26T00:37:17;985.7;;;17.8;85.5
56272;BME280;42177;48.914;18.160;2023-06-26T00:42:17;985.7;;;17.8;85.5
56272;BME280;42177;48.914;18.160;2023-06-26T00:47:17;985.8;;;17.8;85.5
56272;BME280;42177;48.914;18.160;2023-06-26T00:52:17;985.8;;;17.8;85.5
56272;BME280;42177;48.914;18.160;2023-06-26T00:57:17;985.8;;;17.2;87.3
56272;BME280;42177;48.914;18.160;2023-06-26T01:02:17;985.8;;;17.2;87.3
56272;BME280;42177;48.914;18.160;2023-06-26T01:07:17;985.7;;;17.8;84.9
56272;BME280;42177;48.914;18.160;2023-06-26T01:12:17;985.7;;;17.8;84.9
56272;BME280;42177;48.914;18.160;2023-06-26T01:17:17;985.5;;;17.5;86
56272;BME280;42177;48.914;18.160;2023-06-26T01:22:19;985.5;;;17.5;86
56272;BME280;42177;48.914;18.160;2023-06-26T01:27:17;985.6;;;17.4;87
56272;BME280;42177;48.914;18.160;2023-06-26T01:32:17;985.6;;;17.4;87
56272;BME280;42177;48.914;18.160;2023-06-26T01:37:17;985.5;;;17.4;87
56272;BME280;42177;48.914;18.160;2023-06-26T01:42:17;985.5;;;17.4;87
56272;BME280;42177;48.914;18.160;2023-06-26T01:47:19;985.6;;;17.4;86.8
56272;BME280;42177;48.914;18.160;2023-06-26T01:52:19;985.6;;;17.4;86.8
56272;BME280;42177;48.914;18.160;2023-06-26T01:57:17;985.5;;;17.1;88.4
56272;BME280;42177;48.914;18.160;2023-06-26T02:02:17;985.5;;;17.1;88.4
56272;BME280;42177;48.914;18.160;2023-06-26T02:07:17;985.6;;;17.3;87.7
56272;BME280;42177;48.914;18.160;2023-06-26T02:12:17;985.6;;;17.3;87.7
56272;BME280;42177;48.914;18.160;2023-06-26T02:17:17;985.5;;;17.2;87.6
56272;BME280;42177;48.914;18.160;2023-06-26T02:22:17;985.5;;;17.2;87.6
56272;BME280;42177;48.914;18.160;2023-06-26T02:27:17;985.5;;;17.2;87.4
56272;BME280;42177;48.914;18.160;2023-06-26T02:32:17;985.5;;;17.2;87.4
56272;BME280;42177;48.914;18.160;2023-06-26T02:37:17;985.5;;;17.1;87.8
56272;BME280;42177;48.914;18.160;2023-06-26T02:42:17;985.5;;;17.1;87.8
56272;BME280;42177;48.914;18.160;2023-06-26T02:47:17;985.6;;;17.2;87.5
56272;BME280;42177;48.914;18.160;2023-06-26T02:52:17;985.6;;;17.2;87.5
56272;BME280;42177;48.914;18.160;2023-06-26T02:57:17;985.6;;;17;88.1
56272;BME280;42177;48.914;18.160;2023-06-26T03:02:17;985.6;;;17;88.1
56272;BME280;42177;48.914;18.160;2023-06-26T03:07:17;985.6;;;16.8;89.5
56272;BME280;42177;48.914;18.160;2023-06-26T03:12:17;985.6;;;16.8;89.5
56272;BME280;42177;48.914;18.160;2023-06-26T03:17:17;985.7;;;16.9;88.9
56272;BME280;42177;48.914;18.160;2023-06-26T03:22:17;985.7;;;16.9;88.9
56272;BME280;42177;48.914;18.160;2023-06-26T03:27:17;985.6;;;16.7;89.8
56272;BME280;42177;48.914;18.160;2023-06-26T03:32:17;985.6;;;16.7;89.8
56272;BME280;42177;48.914;18.160;2023-06-26T03:37:17;985.7;;;16.9;89.1
56272;BME280;42177;48.914;18.160;2023-06-26T03:42:17;985.7;;;16.9;89.1
56272;BME280;42177;48.914;18.160;2023-06-26T03:47:17;985.7;;;16.8;90.2
56272;BME280;42177;48.914;18.160;2023-06-26T03:52:17;985.7;;;16.8;90.2
56272;BME280;42177;48.914;18.160;2023-06-26T03:57:17;985.8;;;16.9;89.1
56272;BME280;42177;48.914;18.160;2023-06-26T04:02:17;985.8;;;16.9;89.1
56272;BME280;42177;48.914;18.160;2023-06-26T04:07:17;985.9;;;17;88.8
56272;BME280;42177;48.914;18.160;2023-06-26T04:12:17;985.9;;;17;88.8
56272;BME280;42177;48.914;18.160;2023-06-26T04:17:17;985.8;;;17.2;88.3
56272;BME280;42177;48.914;18.160;2023-06-26T04:22:17;985.8;;;17.2;88.3
56272;BME280;42177;48.914;18.160;2023-06-26T04:27:17;985.8;;;17.1;89.3
56272;BME280;42177;48.914;18.160;2023-06-26T04:32:17;985.8;;;17.1;89.3
56272;BME280;42177;48.914;18.160;2023-06-26T04:37:17;985.8;;;17.2;89.4
56272;BME280;42177;48.914;18.160;2023-06-26T04:42:17;985.8;;;17.2;89.4
56272;BME280;42177;48.914;18.160;2023-06-26T04:47:17;985.9;;;17.6;89.2
56272;BME280;42177;48.914;18.160;2023-06-26T04:52:17;985.9;;;17.6;89.2
56272;BME280;42177;48.914;18.160;2023-06-26T04:57:17;986;;;18;87.6
56272;BME280;42177;48.914;18.160;2023-06-26T05:02:17;986;;;18;87.6
56272;BME280;42177;48.914;18.160;2023-06-26T05:07:17;985.9;;;18.2;86.6
56272;BME280;42177;48.914;18.160;2023-06-26T05:12:17;985.9;;;18.2;86.6
56272;BME280;42177;48.914;18.160;2023-06-26T05:17:17;985.9;;;18.3;86.5
56272;BME280;42177;48.914;18.160;2023-06-26T05:22:17;985.9;;;18.3;86.5
56272;BME280;42177;48.914;18.160;2023-06-26T05:27:18;985.8;;;18.6;85.2
56272;BME280;42177;48.914;18.160;2023-06-26T05:32:17;985.8;;;18.6;85.2
56272;BME280;42177;48.914;18.160;2023-06-26T05:37:18;985.8;;;18.7;83.6
56272;BME280;42177;48.914;18.160;2023-06-26T05:42:17;985.8;;;18.7;83.6
56272;BME280;42177;48.914;18.160;2023-06-26T05:47:17;985.8;;;19;82.1
56272;BME280;42177;48.914;18.160;2023-06-26T05:52:17;985.8;;;19;82.1
56272;BME280;42177;48.914;18.160;2023-06-26T05:57:17;985.8;;;19;81.5
56272;BME280;42177;48.914;18.160;2023-06-26T06:02:17;985.8;;;19;81.5
56272;BME280;42177;48.914;18.160;2023-06-26T06:07:17;985.9;;;19.5;79
56272;BME280;42177;48.914;18.160;2023-06-26T06:12:17;985.9;;;19.5;79
56272;BME280;42177;48.914;18.160;2023-06-26T06:17:17;985.8;;;20.1;76.3
56272;BME280;42177;48.914;18.160;2023-06-26T06:22:17;985.8;;;20.1;76.3
56272;BME280;42177;48.914;18.160;2023-06-26T06:27:17;985.7;;;20.2;74.8
56272;BME280;42177;48.914;18.160;2023-06-26T06:32:17;985.7;;;20.2;74.8
56272;BME280;42177;48.914;18.160;2023-06-26T06:37:17;985.9;;;20.7;72.5
56272;BME280;42177;48.914;18.160;2023-06-26T06:42:17;985.9;;;20.7;72.5
56272;BME280;42177;48.914;18.160;2023-06-26T06:47:17;985.7;;;21.2;71.5
56272;BME280;42177;48.914;18.160;2023-06-26T06:52:17;985.7;;;21.2;71.5
56272;BME280;42177;48.914;18.160;2023-06-26T06:57:17;985.7;;;21.5;69.9
56272;BME280;42177;48.914;18.160;2023-06-26T07:02:17;985.7;;;21.5;69.9
56272;BME280;42177;48.914;18.160;2023-06-26T07:07:18;985.7;;;21.9;68.5
56272;BME280;42177;48.914;18.160;2023-06-26T07:12:17;985.7;;;21.9;68.5
56272;BME280;42177;48.914;18.160;2023-06-26T07:17:17;985.5;;;22.2;66.6
56272;BME280;42177;48.914;18.160;2023-06-26T07:22:17;985.5;;;22.2;66.6
56272;BME280;42177;48.914;18.160;2023-06-26T07:27:17;985.6;;;22.6;64.2
56272;BME280;42177;48.914;18.160;2023-06-26T07:32:17;985.6;;;22.6;64.2
56272;BME280;42177;48.914;18.160;2023-06-26T07:37:17;985.6;;;22.9;59.8
56272;BME280;42177;48.914;18.160;2023-06-26T07:42:17;985.6;;;22.9;59.8
56272;BME280;42177;48.914;18.160;2023-06-26T07:47:17;985.6;;;23;57.3
56272;BME280;42177;48.914;18.160;2023-06-26T07:52:17;985.6;;;23;57.3
56272;BME280;42177;48.914;18.160;2023-06-26T07:57:17;985.6;;;23.5;54.3
56272;BME280;42177;48.914;18.160;2023-06-26T08:02:17;985.6;;;23.5;54.3
56272;BME280;42177;48.914;18.160;2023-06-26T08:07:17;985.5;;;23.6;51.4
56272;BME280;42177;48.914;18.160;2023-06-26T08:12:17;985.5;;;23.6;51.4
56272;BME280;42177;48.914;18.160;2023-06-26T08:17:17;985.5;;;23.8;48.9
56272;BME280;42177;48.914;18.160;2023-06-26T08:22:17;985.5;;;23.8;48.9
56272;BME280;42177;48.914;18.160;2023-06-26T08:27:17;985.5;;;24.1;47.5
56272;BME280;42177;48.914;18.160;2023-06-26T08:32:17;985.5;;;24.1;47.5
56272;BME280;42177;48.914;18.160;2023-06-26T08:37:17;985.5;;;24.9;46.1
56272;BME280;42177;48.914;18.160;2023-06-26T08:42:17;985.5;;;24.9;46.1
56272;BME280;42177;48.914;18.160;2023-06-26T08:47:17;985.5;;;25;44.4
56272;BME280;42177;48.914;18.160;2023-06-26T08:52:19;985.5;;;25;44.4
56272;BME280;42177;48.914;18.160;2023-06-26T08:57:18;985.5;;;25.5;44.3
56272;BME280;42177;48.914;18.160;2023-06-26T09:02:17;985.5;;;25.5;44.3
56272;BME280;42177;48.914;18.160;2023-06-26T09:07:17;985.2;;;25.2;44.2
56272;BME280;42177;48.914;18.160;2023-06-26T09:12:17;985.2;;;25.2;44.2
56272;BME280;42177;48.914;18.160;2023-06-26T09:17:17;985.2;;;25.8;43.3
56272;BME280;42177;48.914;18.160;2023-06-26T09:22:17;985.2;;;25.8;43.3
56272;BME280;42177;48.914;18.160;2023-06-26T09:27:17;985.3;;;26.3;43.9
56272;BME280;42177;48.914;18.160;2023-06-26T09:32:17;985.3;;;26.3;43.9
56272;BME280;42177;48.914;18.160;2023-06-26T09:37:17;985.2;;;26.1;43.6
56272;BME280;42177;48.914;18.160;2023-06-26T09:42:18;985.2;;;26.1;43.6
56272;BME280;42177;48.914;18.160;2023-06-26T09:47:18;985.1;;;26.8;44.3
56272;BME280;42177;48.914;18.160;2023-06-26T09:52:18;985.1;;;26.8;44.3
56272;BME280;42177;48.914;18.160;2023-06-26T09:57:18;985.1;;;27;43.8
56272;BME280;42177;48.914;18.160;2023-06-26T10:02:17;985.1;;;27;43.8
56272;BME280;42177;48.914;18.160;2023-06-26T10:07:17;984.9;;;26.8;41.3
56272;BME280;42177;48.914;18.160;2023-06-26T10:12:19;984.9;;;26.8;41.3
56272;BME280;42177;48.914;18.160;2023-06-26T10:17:19;985;;;27.4;40
56272;BME280;42177;48.914;18.160;2023-06-26T10:22:18;985;;;27.4;40
56272;BME280;42177;48.914;18.160;2023-06-26T10:27:18;984.8;;;28;39.7
56272;BME280;42177;48.914;18.160;2023-06-26T10:32:18;984.8;;;28;39.7
56272;BME280;42177;48.914;18.160;2023-06-26T10:37:17;984.8;;;27.7;41.3
56272;BME280;42177;48.914;18.160;2023-06-26T10:42:18;984.8;;;27.7;41.3
56272;BME280;42177;48.914;18.160;2023-06-26T10:47:33;984.7;;;27.2;42.1
56272;BME280;42177;48.914;18.160;2023-06-26T10:52:17;984.7;;;27.2;42.1
56272;BME280;42177;48.914;18.160;2023-06-26T10:57:22;984.5;;;27.9;42.2
56272;BME280;42177;48.914;18.160;2023-06-26T11:02:17;984.5;;;27.9;42.2
56272;BME280;42177;48.914;18.160;2023-06-26T11:07:18;984.5;;;27.5;40.6
56272;BME280;42177;48.914;18.160;2023-06-26T11:12:32;984.5;;;27.5;40.6
56272;BME280;42177;48.914;18.160;2023-06-26T11:17:18;984.5;;;27.2;40.5
56272;BME280;42177;48.914;18.160;2023-06-26T11:22:17;984.5;;;27.2;40.5
56272;BME280;42177;48.914;18.160;2023-06-26T11:27:17;984.4;;;28.8;37.8
56272;BME280;42177;48.914;18.160;2023-06-26T11:32:18;984.4;;;28.8;37.8
56272;BME280;42177;48.914;18.160;2023-06-26T11:37:17;984.4;;;28.5;38.2
56272;BME280;42177;48.914;18.160;2023-06-26T11:42:17;984.4;;;28.5;38.2
56272;BME280;42177;48.914;18.160;2023-06-26T11:47:19;984.4;;;27.9;38.6
56272;BME280;42177;48.914;18.160;2023-06-26T11:52:18;984.4;;;27.9;38.6
56272;BME280;42177;48.914;18.160;2023-06-26T11:57:17;984.4;;;28.5;38.3
56272;BME280;42177;48.914;18.160;2023-06-26T12:02:17;984.4;;;28.5;38.3
56272;BME280;42177;48.914;18.160;2023-06-26T12:07:17;984.2;;;28.5;37.4
56272;BME280;42177;48.914;18.160;2023-06-26T12:12:18;984.2;;;28.5;37.4
56272;BME280;42177;48.914;18.160;2023-06-26T12:17:17;984.1;;;29.6;35.4
56272;BME280;42177;48.914;18.160;2023-06-26T12:22:18;984.1;;;29.6;35.4
56272;BME280;42177;48.914;18.160;2023-06-26T12:27:18;984.2;;;27.9;36.9
56272;BME280;42177;48.914;18.160;2023-06-26T12:32:18;984.2;;;27.9;36.9
56272;BME280;42177;48.914;18.160;2023-06-26T12:37:17;984.2;;;28.3;38.3
56272;BME280;42177;48.914;18.160;2023-06-26T12:42:18;984.2;;;28.3;38.3
56272;BME280;42177;48.914;18.160;2023-06-26T12:47:23;984.2;;;29;37
56272;BME280;42177;48.914;18.160;2023-06-26T12:52:18;984.2;;;29;37
56272;BME280;42177;48.914;18.160;2023-06-26T12:57:17;984.1;;;29.9;37
56272;BME280;42177;48.914;18.160;2023-06-26T13:02:18;984.1;;;29.9;37
56272;BME280;42177;48.914;18.160;2023-06-26T13:07:17;984;;;29.7;36.1
56272;BME280;42177;48.914;18.160;2023-06-26T13:12:17;984;;;29.7;36.1
56272;BME280;42177;48.914;18.160;2023-06-26T13:17:17;983.9;;;29.6;35.4
56272;BME280;42177;48.914;18.160;2023-06-26T13:22:18;983.9;;;29.6;35.4
56272;BME280;42177;48.914;18.160;2023-06-26T13:27:18;983.8;;;29.8;34.7
56272;BME280;42177;48.914;18.160;2023-06-26T13:32:18;983.8;;;29.8;34.7
56272;BME280;42177;48.914;18.160;2023-06-26T13:37:17;983.7;;;30;33.7
56272;BME280;42177;48.914;18.160;2023-06-26T13:42:18;983.7;;;30;33.7
56272;BME280;42177;48.914;18.160;2023-06-26T13:47:18;983.6;;;29.5;34
56272;BME280;42177;48.914;18.160;2023-06-26T13:52:18;983.6;;;29.5;34
56272;BME280;42177;48.914;18.160;2023-06-26T13:57:17;983.7;;;30;33.9
56272;BME280;42177;48.914;18.160;2023-06-26T14:02:18;983.7;;;30;33.9
56272;BME280;42177;48.914;18.160;2023-06-26T14:07:18;983.5;;;30.9;31.6
56272;BME280;42177;48.914;18.160;2023-06-26T14:12:18;983.5;;;30.9;31.6
56272;BME280;42177;48.914;18.160;2023-06-26T14:17:17;983.4;;;30.6;31.8
56272;BME280;42177;48.914;18.160;2023-06-26T14:22:18;983.4;;;30.6;31.8
56272;BME280;42177;48.914;18.160;2023-06-26T14:27:18;983.4;;;30.2;33.2
56272;BME280;42177;48.914;18.160;2023-06-26T14:32:17;983.4;;;30.2;33.2
56272;BME280;42177;48.914;18.160;2023-06-26T14:37:17;983.4;;;30;32.7
56272;BME280;42177;48.914;18.160;2023-06-26T14:42:17;983.4;;;30;32.7
56272;BME280;42177;48.914;18.160;2023-06-26T14:47:18;983.3;;;30;33.2
56272;BME280;42177;48.914;18.160;2023-06-26T14:52:18;983.3;;;30;33.2
56272;BME280;42177;48.914;18.160;2023-06-26T14:57:18;983.3;;;30.2;32.1
56272;BME280;42177;48.914;18.160;2023-06-26T15:02:18;983.3;;;30.2;32.1
56272;BME280;42177;48.914;18.160;2023-06-26T15:07:18;983.1;;;30.3;32.4
56272;BME280;42177;48.914;18.160;2023-06-26T15:12:18;983.1;;;30.3;32.4
56272;BME280;42177;48.914;18.160;2023-06-26T15:17:18;983.1;;;29.8;32.8
56272;BME280;42177;48.914;18.160;2023-06-26T15:22:18;983.1;;;29.8;32.8
56272;BME280;42177;48.914;18.160;2023-06-26T15:27:18;983;;;30.1;32.9
56272;BME280;42177;48.914;18.160;2023-06-26T15:32:18;983;;;30.1;32.9
56272;BME280;42177;48.914;18.160;2023-06-26T15:37:17;982.9;;;29.8;33.8
56272;BME280;42177;48.914;18.160;2023-06-26T15:42:18;982.9;;;29.8;33.8
56272;BME280;42177;48.914;18.160;2023-06-26T15:47:18;982.8;;;29.6;33.6
56272;BME280;42177;48.914;18.160;2023-06-26T15:52:18;982.8;;;29.6;33.6
56272;BME280;42177;48.914;18.160;2023-06-26T15:57:18;982.7;;;29.4;34.8
56272;BME280;42177;48.914;18.160;2023-06-26T16:02:18;982.7;;;29.4;34.8
56272;BME280;42177;48.914;18.160;2023-06-26T16:07:18;982.6;;;30.4;32.9
56272;BME280;42177;48.914;18.160;2023-06-26T16:12:18;982.6;;;30.4;32.9
56272;BME280;42177;48.914;18.160;2023-06-26T16:17:18;982.6;;;29.8;34.4
56272;BME280;42177;48.914;18.160;2023-06-26T16:22:18;982.6;;;29.8;34.4
56272;BME280;42177;48.914;18.160;2023-06-26T16:27:18;982.4;;;29.5;35.7
56272;BME280;42177;48.914;18.160;2023-06-26T16:32:18;982.4;;;29.5;35.7
56272;BME280;42177;48.914;18.160;2023-06-26T16:37:18;982.5;;;30.1;35.8
56272;BME280;42177;48.914;18.160;2023-06-26T16:42:18;982.5;;;30.1;35.8
56272;BME280;42177;48.914;18.160;2023-06-26T16:47:18;982.2;;;28.9;37.6
56272;BME280;42177;48.914;18.160;2023-06-26T16:52:18;982.2;;;28.9;37.6
56272;BME280;42177;48.914;18.160;2023-06-26T16:57:18;982.3;;;28.6;38.8
56272;BME280;42177;48.914;18.160;2023-06-26T17:02:18;982.3;;;28.6;38.8
56272;BME280;42177;48.914;18.160;2023-06-26T17:07:18;982.3;;;27.4;40.5
56272;BME280;42177;48.914;18.160;2023-06-26T17:12:18;982.3;;;27.4;40.5
56272;BME280;42177;48.914;18.160;2023-06-26T17:17:18;982.3;;;27.8;39.8
56272;BME280;42177;48.914;18.160;2023-06-26T17:22:18;982.3;;;27.8;39.8
56272;BME280;42177;48.914;18.160;2023-06-26T17:27:18;982.4;;;27.1;41.9
56272;BME280;42177;48.914;18.160;2023-06-26T17:32:18;982.4;;;27.1;41.9
56272;BME280;42177;48.914;18.160;2023-06-26T17:37:19;982.3;;;26.8;43.9
56272;BME280;42177;48.914;18.160;2023-06-26T17:42:18;982.3;;;26.8;43.9
56272;BME280;42177;48.914;18.160;2023-06-26T17:47:18;982.4;;;26.2;46.2
56272;BME280;42177;48.914;18.160;2023-06-26T17:52:18;982.4;;;26.2;46.2
56272;BME280;42177;48.914;18.160;2023-06-26T17:57:18;982.3;;;25.8;47.7
56272;BME280;42177;48.914;18.160;2023-06-26T18:02:18;982.3;;;25.8;47.7
56272;BME280;42177;48.914;18.160;2023-06-26T18:07:18;982.4;;;25.5;49.4
56272;BME280;42177;48.914;18.160;2023-06-26T18:12:18;982.4;;;25.5;49.4
56272;BME280;42177;48.914;18.160;2023-06-26T18:17:18;982.5;;;25.1;50.6
56272;BME280;42177;48.914;18.160;2023-06-26T18:22:18;982.5;;;25.1;50.6
56272;BME280;42177;48.914;18.160;2023-06-26T18:27:18;982.5;;;24.7;51.5
56272;BME280;42177;48.914;18.160;2023-06-26T18:32:18;982.5;;;24.7;51.5
56272;BME280;42177;48.914;18.160;2023-06-26T18:37:18;982.6;;;24.2;54.8
56272;BME280;42177;48.914;18.160;2023-06-26T18:42:18;982.6;;;24.2;54.8
56272;BME280;42177;48.914;18.160;2023-06-26T18:47:18;982.6;;;23.9;56
56272;BME280;42177;48.914;18.160;2023-06-26T18:52:18;982.6;;;23.9;56
56272;BME280;42177;48.914;18.160;2023-06-26T18:57:18;982.5;;;23.6;57.2
56272;BME280;42177;48.914;18.160;2023-06-26T19:02:18;982.5;;;23.6;57.2
56272;BME280;42177;48.914;18.160;2023-06-26T19:07:18;982.6;;;23;59.1
56272;BME280;42177;48.914;18.160;2023-06-26T19:12:18;982.6;;;23;59.1
56272;BME280;42177;48.914;18.160;2023-06-26T19:17:18;982.6;;;22.9;60.4
56272;BME280;42177;48.914;18.160;2023-06-26T19:22:18;982.6;;;22.9;60.4
56272;BME280;42177;48.914;18.160;2023-06-26T19:27:18;982.6;;;22.6;62.1
56272;BME280;42177;48.914;18.160;2023-06-26T19:32:18;982.6;;;22.6;62.1
56272;BME280;42177;48.914;18.160;2023-06-26T19:37:18;982.6;;;22.2;63.7
56272;BME280;42177;48.914;18.160;2023-06-26T19:42:18;982.6;;;22.2;63.7
56272;BME280;42177;48.914;18.160;2023-06-26T19:47:18;982.4;;;22;64.7
56272;BME280;42177;48.914;18.160;2023-06-26T19:52:18;982.4;;;22;64.7
56272;BME280;42177;48.914;18.160;2023-06-26T19:57:18;982.5;;;21.9;66.2
56272;BME280;42177;48.914;18.160;2023-06-26T20:02:18;982.5;;;21.9;66.2
56272;BME280;42177;48.914;18.160;2023-06-26T20:07:18;982.4;;;21.5;67.1
56272;BME280;42177;48.914;18.160;2023-06-26T20:12:18;982.4;;;21.5;67.1
56272;BME280;42177;48.914;18.160;2023-06-26T20:17:18;982.5;;;21.4;66.6
56272;BME280;42177;48.914;18.160;2023-06-26T20:22:18;982.5;;;21.4;66.6
56272;BME280;42177;48.914;18.160;2023-06-26T20:27:19;982.5;;;21.3;66.8
56272;BME280;42177;48.914;18.160;2023-06-26T20:32:18;982.5;;;21.3;66.8
56272;BME280;42177;48.914;18.160;2023-06-26T20:37:18;982.5;;;21;67.5
56272;BME280;42177;48.914;18.160;2023-06-26T20:42:18;982.5;;;21;67.5
56272;BME280;42177;48.914;18.160;2023-06-26T20:47:18;982.5;;;20.8;69.6
56272;BME280;42177;48.914;18.160;2023-06-26T20:52:18;982.5;;;20.8;69.6
56272;BME280;42177;48.914;18.160;2023-06-26T20:57:18;982.4;;;20.5;71.1
56272;BME280;42177;48.914;18.160;2023-06-26T21:02:18;982.4;;;20.5;71.1
56272;BME280;42177;48.914;18.160;2023-06-26T21:07:18;982.4;;;20.7;70.3
56272;BME280;42177;48.914;18.160;2023-06-26T21:12:18;982.4;;;20.7;70.3
56272;BME280;42177;48.914;18.160;2023-06-26T21:17:18;982.4;;;20.4;71.7
56272;BME280;42177;48.914;18.160;2023-06-26T21:22:18;982.4;;;20.4;71.7
56272;BME280;42177;48.914;18.160;2023-06-26T21:27:18;982.4;;;20.3;71.2
56272;BME280;42177;48.914;18.160;2023-06-26T21:32:18;982.4;;;20.3;71.2
56272;BME280;42177;48.914;18.160;2023-06-26T21:37:18;982.3;;;20.5;69.7
56272;BME280;42177;48.914;18.160;2023-06-26T21:42:18;982.3;;;20.5;69.7
56272;BME280;42177;48.914;18.160;2023-06-26T21:47:18;982.2;;;20;71.8
56272;BME280;42177;48.914;18.160;2023-06-26T21:52:18;982.2;;;20;71.8
56272;BME280;42177;48.914;18.160;2023-06-26T21:57:18;982;;;19.9;72.2
56272;BME280;42177;48.914;18.160;2023-06-26T22:02:18;982;;;19.9;72.2
56272;BME280;42177;48.914;18.160;2023-06-26T22:07:18;981.9;;;19.9;72.4
56272;BME280;42177;48.914;18.160;2023-06-26T22:12:18;981.9;;;19.9;72.4
56272;BME280;42177;48.914;18.160;2023-06-26T22:17:18;981.9;;;19.4;75.4
56272;BME280;42177;48.914;18.160;2023-06-26T22:22:18;981.9;;;19.4;75.4
56272;BME280;42177;48.914;18.160;2023-06-26T22:27:18;981.8;;;19.6;74.2
56272;BME280;42177;48.914;18.160;2023-06-26T22:32:18;981.8;;;19.6;74.2
56272;BME280;42177;48.914;18.160;2023-06-26T22:37:18;981.9;;;19.8;73.2
56272;BME280;42177;48.914;18.160;2023-06-26T22:42:18;981.9;;;19.8;73.2
56272;BME280;42177;48.914;18.160;2023-06-26T22:47:18;982;;;19.7;74.8
56272;BME280;42177;48.914;18.160;2023-06-26T22:52:18;982;;;19.7;74.8
56272;BME280;42177;48.914;18.160;2023-06-26T22:57:18;981.9;;;19.3;76.5
56272;BME280;42177;48.914;18.160;2023-06-26T23:02:18;981.9;;;19.3;76.5
56272;BME280;42177;48.914;18.160;2023-06-26T23:07:18;982;;;19.5;76
56272;BME280;42177;48.914;18.160;2023-06-26T23:12:18;982;;;19.5;76
56272;BME280;42177;48.914;18.160;2023-06-26T23:17:18;982.1;;;19.2;77.8
56272;BME280;42177;48.914;18.160;2023-06-26T23:22:18;982.1;;;19.2;77.8
56272;BME280;42177;48.914;18.160;2023-06-26T23:27:18;982.1;;;19;77.8
56272;BME280;42177;48.914;18.160;2023-06-26T23:32:18;982.1;;;19;77.8
56272;BME280;42177;48.914;18.160;2023-06-26T23:37:18;981.9;;;19.3;77.3
56272;BME280;42177;48.914;18.160;2023-06-26T23:42:18;981.9;;;19.3;77.3
56272;BME280;42177;48.914;18.160;2023-06-26T23:47:18;981.5;;;18.8;78.7
56272;BME280;42177;48.914;18.160;2023-06-26T23:52:18;981.5;;;18.8;78.7
56272;BME280;42177;48.914;18.160;2023-06-26T23:57:18;981.3;;;18.6;80.1
